createdAt,value
2019-04-23T00:02:13.528Z,57.20
2019-04-23T00:04:36.740Z,57.10
2019-04-23T00:07:15.818Z,57.10
2019-04-23T00:09:40.983Z,57.30
2019-04-23T00:12:11.775Z,57.30
2019-04-23T00:14:48.038Z,57.80
2019-04-23T00:17:04.450Z,57.40
2019-04-23T00:19:31.145Z,57.30
2019-04-23T00:21:59.980Z,57.50
2019-04-23T00:24:56.800Z,57.80
2019-04-23T00:27:27.523Z,57.80
2019-04-23T00:29:48.393Z,58.00
2019-04-23T00:32:08.170Z,58.20
2019-04-23T00:34:45.314Z,58.20
2019-04-23T00:37:01.613Z,58.60
2019-04-23T00:39:39.100Z,58.40
2019-04-23T00:42:05.145Z,58.50
2019-04-23T00:44:32.436Z,58.60
2019-04-23T00:46:56.420Z,58.50
2019-04-23T00:49:29.259Z,58.70
2019-04-23T00:51:58.389Z,59.00
2019-04-23T00:54:26.357Z,59.30
2019-04-23T00:57:01.336Z,59.30
2019-04-23T00:59:22.265Z,59.30
2019-04-23T01:04:20.842Z,59.90
2019-04-23T01:06:51.210Z,60.00
2019-04-23T01:09:14.249Z,60.30
2019-04-23T01:11:44.199Z,60.40
2019-04-23T01:14:13.417Z,60.30
2019-04-23T01:16:38.236Z,60.40
2019-04-23T01:19:06.770Z,60.90
2019-04-23T01:21:22.399Z,61.00
2019-04-23T01:24:06.443Z,60.30
2019-04-23T01:27:29.759Z,60.40
2019-04-23T01:29:42.559Z,60.70
2019-04-23T01:32:05.476Z,60.00
2019-04-23T01:34:40.041Z,61.30
2019-04-23T01:37:14.835Z,61.90
2019-04-23T01:39:32.791Z,61.30
2019-04-23T01:42:16.555Z,62.60
2019-04-23T01:44:36.678Z,61.30
2019-04-23T01:47:04.185Z,60.70
2019-04-23T01:49:39.183Z,60.60
2019-04-23T01:52:00.342Z,61.00
2019-04-23T01:54:26.068Z,61.00
2019-04-23T01:56:56.654Z,61.30
2019-04-23T01:59:24.531Z,61.10
2019-04-23T02:01:50.269Z,61.20
2019-04-23T02:04:22.949Z,61.60
2019-04-23T02:06:51.918Z,61.90
2019-04-23T02:09:16.689Z,62.00
2019-04-23T02:14:16.371Z,63.20
2019-04-23T02:16:45.906Z,62.80
2019-04-23T02:19:19.947Z,63.00
2019-04-23T02:21:55.125Z,63.20
2019-04-23T02:24:24.721Z,63.60
2019-04-23T02:26:50.471Z,63.90
2019-04-23T02:29:37.870Z,64.40
2019-04-23T02:34:43.305Z,64.70
2019-04-23T02:36:54.553Z,64.30
2019-04-23T02:39:29.388Z,64.40
2019-04-23T02:44:36.660Z,65.10
2019-04-23T02:46:59.475Z,65.40
2019-04-23T02:51:54.473Z,65.80
2019-04-23T02:54:26.091Z,65.90
2019-04-23T02:59:19.430Z,66.10
2019-04-23T03:09:27.818Z,66.50
2019-04-23T03:14:09.401Z,66.80
2019-04-23T03:19:09.654Z,67.20
2019-04-23T03:21:42.636Z,67.50
2019-04-23T03:24:34.982Z,67.60
2019-04-23T03:27:16.568Z,67.50
2019-04-23T03:39:32.932Z,68.20
2019-04-23T03:42:02.662Z,68.20
2019-04-23T03:44:14.535Z,69.00
2019-04-23T03:49:09.614Z,69.20
2019-04-23T03:51:43.572Z,68.30
2019-04-23T03:54:26.270Z,69.10
2019-04-23T03:56:56.790Z,69.20
2019-04-23T03:59:26.620Z,69.30
2019-04-23T04:01:40.916Z,69.80
2019-04-23T04:06:51.174Z,69.30
2019-04-23T04:09:13.257Z,69.40
2019-04-23T04:11:31.229Z,69.80
2019-04-23T04:14:23.701Z,70.10
2019-04-23T04:16:26.536Z,70.10
2019-04-23T04:24:03.199Z,70.30
2019-04-23T04:26:21.103Z,70.50
2019-04-23T04:28:52.745Z,70.60
2019-04-23T04:31:37.429Z,70.60
2019-04-23T04:34:11.350Z,70.50
2019-04-23T04:41:14.235Z,70.70
2019-04-23T04:44:07.360Z,71.40
2019-04-23T04:48:46.496Z,71.40
2019-04-23T04:56:25.274Z,72.10
2019-04-23T04:58:34.450Z,72.70
2019-04-23T05:01:16.550Z,72.60
2019-04-23T05:08:34.500Z,74.60
2019-04-23T05:11:00.093Z,73.10
2019-04-23T05:18:31.751Z,74.10
2019-04-23T05:20:58.494Z,73.80
2019-04-23T05:23:52.436Z,73.40
2019-04-23T05:26:11.546Z,74.20
2019-04-23T05:28:47.122Z,74.20
2019-04-23T05:31:12.367Z,74.40
2019-04-23T05:33:52.313Z,74.00
2019-04-23T05:38:48.577Z,75.00
2019-04-23T05:43:32.869Z,75.20
2019-04-23T05:45:59.211Z,75.00
2019-04-23T05:48:24.864Z,74.90
2019-04-23T05:51:06.083Z,76.60
2019-04-23T05:53:29.070Z,75.80
2019-04-23T05:55:56.805Z,76.00
2019-04-23T05:58:23.512Z,75.70
2019-04-23T06:01:01.363Z,75.90
2019-04-23T06:03:26.464Z,76.20
2019-04-23T06:05:56.543Z,75.80
2019-04-23T06:08:25.274Z,76.30
2019-04-23T06:13:19.293Z,76.10
2019-04-23T06:15:46.531Z,76.20
2019-04-23T06:18:28.549Z,76.60
2019-04-23T06:20:51.757Z,76.70
2019-04-23T06:23:27.199Z,77.00
2019-04-23T06:26:10.103Z,77.10
2019-04-23T06:28:15.521Z,77.00
2019-04-23T06:33:19.897Z,77.80
2019-04-23T06:35:38.578Z,77.40
2019-04-23T06:40:33.660Z,78.20
2019-04-23T06:43:18.090Z,79.00
2019-04-23T06:45:46.002Z,79.30
2019-04-23T06:48:21.858Z,80.20
2019-04-23T06:50:54.550Z,80.40
2019-04-23T06:53:06.479Z,78.80
2019-04-23T06:55:42.126Z,79.90
2019-04-23T06:58:12.330Z,82.20
2019-04-23T07:00:41.272Z,81.90
2019-04-23T07:03:14.827Z,82.10
2019-04-23T07:06:11.436Z,81.90
2019-04-23T07:08:34.147Z,82.00
2019-04-23T07:10:57.923Z,81.80
2019-04-23T07:13:34.375Z,82.00
2019-04-23T07:15:58.145Z,83.70
2019-04-23T07:18:18.151Z,83.00
2019-04-23T07:20:50.589Z,82.70
2019-04-23T07:23:24.330Z,83.90
2019-04-23T07:25:46.794Z,83.90
2019-04-23T07:28:19.964Z,85.60
2019-04-23T07:30:56.036Z,85.70
2019-04-23T07:33:11.923Z,85.70
2019-04-23T07:35:49.488Z,85.40
2019-04-23T07:38:32.206Z,86.80
2019-04-23T07:41:06.391Z,86.20
2019-04-23T07:43:50.749Z,86.10
2019-04-23T07:46:33.220Z,86.10
2019-04-23T07:48:47.707Z,86.20
2019-04-23T07:51:19.543Z,85.90
2019-04-23T07:53:53.458Z,85.80
2019-04-23T07:56:21.516Z,86.20
2019-04-23T07:58:41.420Z,87.40
2019-04-23T08:01:14.320Z,88.20
2019-04-23T08:03:43.915Z,88.60
2019-04-23T08:06:22.037Z,88.40
2019-04-23T08:08:43.905Z,87.20
2019-04-23T08:11:33.874Z,88.90
2019-04-23T08:13:53.357Z,87.00
2019-04-23T08:16:18.253Z,86.30
2019-04-23T08:18:45.115Z,86.90
2019-04-23T08:21:09.813Z,84.50
2019-04-23T08:23:47.241Z,85.50
2019-04-23T08:26:36.308Z,86.90
2019-04-23T08:31:33.620Z,86.00
2019-04-23T08:34:11.034Z,85.00
2019-04-23T08:36:29.538Z,86.10
2019-04-23T08:38:51.212Z,88.30
2019-04-23T08:41:28.142Z,88.30
2019-04-23T08:44:21.688Z,88.30
2019-04-23T08:46:56.745Z,89.20
2019-04-23T08:49:25.737Z,89.10
2019-04-23T08:51:52.207Z,90.00
2019-04-23T08:54:26.809Z,90.50
2019-04-23T08:56:47.967Z,90.40
2019-04-23T08:59:18.088Z,90.50
2019-04-23T09:01:46.359Z,90.00
2019-04-23T09:04:09.771Z,90.40
2019-04-23T09:06:35.387Z,89.80
2019-04-23T09:09:10.445Z,90.00
2019-04-23T09:19:04.578Z,90.50
2019-04-23T09:21:30.958Z,90.60
2019-04-23T09:26:22.705Z,91.40
2019-04-23T09:31:55.482Z,91.10
2019-04-23T09:34:07.521Z,91.10
2019-04-23T09:36:34.530Z,91.20
2019-04-23T09:39:20.624Z,91.10
2019-04-23T09:41:42.344Z,91.40
2019-04-23T09:44:47.246Z,91.50
2019-04-23T09:47:27.340Z,91.40
2019-04-23T09:49:44.373Z,91.40
2019-04-23T09:52:11.175Z,91.60
2019-04-23T09:56:57.366Z,91.60
2019-04-23T10:01:50.160Z,91.50
2019-04-23T10:04:17.042Z,91.10
2019-04-23T10:06:33.380Z,91.00
2019-04-23T10:09:02.128Z,91.20
2019-04-23T10:11:28.407Z,91.10
2019-04-23T10:13:56.646Z,91.20
2019-04-23T10:16:26.326Z,91.20
2019-04-23T10:18:53.278Z,91.10
2019-04-23T10:21:21.464Z,91.00
2019-04-23T10:23:49.597Z,91.90
2019-04-23T10:26:16.587Z,91.50
2019-04-23T10:28:58.206Z,91.40
2019-04-23T10:31:25.297Z,91.20
2019-04-23T10:33:52.458Z,91.50
2019-04-23T10:36:21.965Z,91.50
2019-04-23T10:38:55.962Z,91.20
2019-04-23T10:41:18.207Z,91.40
2019-04-23T10:43:50.059Z,91.30
2019-04-23T10:46:43.317Z,91.30
2019-04-23T10:54:36.321Z,91.80
2019-04-23T10:56:59.063Z,91.60
2019-04-23T10:59:37.268Z,91.80
2019-04-23T11:02:23.959Z,92.60
2019-04-23T11:07:20.254Z,92.30
2019-04-23T11:12:16.290Z,92.50
2019-04-23T11:14:46.212Z,92.30
2019-04-23T11:17:03.722Z,92.20
2019-04-23T11:19:40.434Z,92.20
2019-04-23T11:22:22.774Z,92.10
2019-04-23T11:27:10.256Z,92.00
2019-04-23T11:29:34.103Z,92.70
2019-04-23T11:32:08.521Z,92.70
2019-04-23T11:34:51.604Z,93.40
2019-04-23T11:37:01.752Z,93.00
2019-04-23T11:39:32.586Z,93.20
2019-04-23T11:41:58.357Z,93.60
2019-04-23T11:44:31.895Z,93.40
2019-04-23T11:49:34.755Z,93.50
2019-04-23T11:51:56.404Z,93.70
2019-04-23T11:54:19.354Z,93.90
2019-04-23T11:57:15.036Z,93.60
2019-04-23T11:59:25.613Z,93.80
2019-04-23T12:04:21.228Z,93.60
2019-04-23T12:09:40.114Z,93.90
2019-04-23T12:12:10.761Z,94.20
2019-04-23T12:27:06.101Z,95.40
2019-04-23T12:29:46.282Z,95.20
2019-04-23T12:34:59.425Z,95.20
2019-04-23T12:37:33.396Z,95.60
2019-04-23T12:40:00.167Z,95.20
2019-04-23T12:42:45.117Z,95.20
2019-04-23T12:44:58.107Z,95.20
2019-04-23T12:47:38.437Z,95.40
2019-04-23T12:50:05.009Z,95.20
2019-04-23T12:52:20.875Z,95.40
2019-04-23T12:59:43.838Z,95.90
2019-04-23T13:02:20.884Z,96.00
2019-04-23T13:04:42.100Z,96.10
2019-04-23T13:07:11.459Z,96.00
2019-04-23T13:09:48.839Z,96.40
2019-04-23T13:12:20.559Z,96.30
2019-04-23T13:14:41.301Z,96.30
2019-04-23T13:17:12.599Z,96.30
2019-04-23T13:19:51.374Z,95.90
2019-04-23T13:22:09.931Z,96.70
2019-04-23T13:24:33.061Z,95.70
2019-04-23T13:27:15.659Z,96.20
2019-04-23T13:29:43.504Z,96.30
2019-04-23T13:31:59.009Z,95.70
2019-04-23T13:34:41.410Z,95.70
2019-04-23T13:37:07.360Z,95.70
2019-04-23T13:39:33.296Z,96.30
2019-04-23T13:42:07.589Z,96.30
2019-04-23T13:44:25.706Z,95.80
2019-04-23T13:47:00.909Z,96.30
2019-04-23T13:49:28.129Z,96.30
2019-04-23T13:51:57.260Z,96.20
2019-04-23T13:54:39.389Z,96.60
2019-04-23T13:57:24.102Z,96.90
2019-04-23T13:59:31.454Z,96.90
2019-04-23T14:01:48.791Z,97.00
2019-04-23T14:04:40.323Z,97.30
2019-04-23T14:07:09.484Z,97.40
2019-04-23T14:12:09.117Z,97.70
2019-04-23T14:14:58.316Z,97.80
2019-04-23T14:17:19.841Z,97.80
2019-04-23T14:19:43.375Z,97.90
2019-04-23T14:22:20.958Z,98.20
2019-04-23T14:24:45.205Z,97.90
2019-04-23T14:27:07.334Z,98.30
2019-04-23T14:29:38.853Z,98.50
2019-04-23T14:34:31.273Z,99.10
2019-04-23T14:37:09.568Z,99.10
2019-04-23T14:39:28.774Z,99.00
2019-04-23T14:41:56.547Z,99.20
2019-04-23T14:44:19.679Z,99.50
2019-04-23T14:47:05.315Z,99.70
2019-04-23T14:49:26.109Z,99.30
2019-04-23T14:55:01.539Z,99.00
2019-04-23T14:57:09.742Z,99.10
2019-04-23T14:59:22.371Z,99.30
2019-04-23T15:01:58.261Z,99.50
2019-04-23T15:04:27.201Z,99.00
2019-04-23T15:09:27.553Z,99.40
2019-04-23T15:12:01.759Z,99.70
2019-04-23T15:14:19.438Z,99.60
2019-04-23T15:16:57.106Z,99.90
2019-04-23T15:29:04.584Z,99.90
2019-04-23T15:31:48.778Z,99.80
2019-04-23T15:34:17.764Z,99.90
2019-04-23T15:41:53.001Z,99.90
2019-04-23T15:44:16.686Z,99.90
2019-04-23T15:46:42.738Z,99.90
2019-04-23T15:56:40.943Z,99.00
2019-04-23T15:59:13.049Z,99.20
2019-04-23T16:03:33.848Z,99.50
2019-04-23T16:06:02.529Z,99.40
2019-04-23T16:14:11.632Z,99.90
2019-04-23T16:16:31.537Z,99.90
2019-04-23T16:21:41.606Z,99.90
2019-04-23T16:24:01.103Z,99.90
2019-04-23T16:26:32.506Z,99.90
2019-04-23T16:29:21.154Z,99.90
2019-04-23T16:33:54.352Z,99.90
2019-04-23T16:38:52.147Z,99.90
2019-04-23T16:41:27.719Z,99.90
2019-04-23T16:43:49.065Z,99.90
2019-04-23T16:46:24.024Z,99.90
2019-04-23T16:51:27.858Z,99.90
2019-04-23T16:53:47.036Z,99.90
2019-04-23T16:58:49.612Z,99.90
2019-04-23T17:03:36.204Z,99.90
2019-04-23T17:06:10.105Z,99.90
2019-04-23T17:11:09.094Z,99.90
2019-04-23T17:13:44.734Z,99.90
2019-04-23T17:18:33.215Z,99.90
2019-04-23T17:20:56.300Z,99.90
2019-04-23T17:23:39.631Z,99.90
2019-04-23T17:25:55.851Z,99.90
2019-04-23T17:28:24.739Z,99.90
2019-04-23T17:31:15.135Z,99.90
2019-04-23T17:33:27.610Z,99.90
2019-04-23T17:36:05.463Z,99.90
2019-04-23T17:38:34.039Z,99.90
2019-04-23T17:41:17.740Z,99.90
2019-04-23T17:43:54.526Z,99.90
2019-04-23T17:46:14.342Z,99.90
2019-04-23T17:48:43.837Z,99.90
2019-04-23T17:53:58.737Z,99.90
2019-04-23T17:56:18.486Z,99.90
2019-04-23T18:03:49.198Z,99.90
2019-04-23T18:06:21.651Z,99.90
2019-04-23T18:08:44.074Z,99.90
2019-04-23T18:11:14.393Z,99.90
2019-04-23T18:13:45.963Z,99.90
2019-04-23T18:16:13.758Z,99.90
2019-04-23T18:21:23.776Z,99.90
2019-04-23T18:24:14.902Z,99.90
2019-04-23T18:26:36.013Z,99.90
2019-04-23T18:29:07.008Z,99.90
2019-04-23T18:31:31.793Z,99.90
2019-04-23T18:34:16.838Z,99.90
2019-04-23T18:36:38.891Z,99.90
2019-04-23T18:39:09.410Z,99.90
2019-04-23T18:41:42.707Z,99.90
2019-04-23T18:46:37.143Z,99.90
2019-04-23T18:48:57.892Z,99.90
2019-04-23T18:51:32.094Z,99.90
2019-04-23T18:53:52.980Z,99.90
2019-04-23T18:56:58.374Z,99.90
2019-04-23T18:59:01.004Z,99.90
2019-04-23T19:06:34.413Z,99.90
2019-04-23T19:09:10.040Z,99.90
2019-04-23T19:11:59.840Z,99.90
2019-04-23T19:14:30.869Z,99.90
2019-04-23T19:17:25.011Z,99.90
2019-04-23T19:19:24.465Z,99.90
2019-04-23T19:22:04.399Z,99.90
2019-04-23T19:24:13.807Z,99.90
2019-04-23T19:27:03.668Z,99.90
2019-04-23T19:29:14.189Z,99.90
2019-04-23T19:34:35.646Z,99.90
2019-04-23T19:36:54.265Z,99.90
2019-04-23T19:44:08.451Z,99.90
2019-04-23T19:49:14.986Z,99.90
2019-04-23T19:51:41.483Z,99.90
2019-04-23T19:56:45.163Z,99.90
2019-04-23T19:59:05.132Z,99.90
2019-04-23T20:01:43.449Z,99.90
2019-04-23T20:04:18.098Z,99.90
2019-04-23T20:06:58.733Z,99.90
2019-04-23T20:09:21.929Z,99.90
2019-04-23T20:11:34.706Z,99.90
2019-04-23T20:16:40.089Z,99.90
2019-04-23T20:18:54.778Z,99.90
2019-04-23T20:21:21.207Z,99.90
2019-04-23T20:24:04.865Z,99.90
2019-04-23T20:26:17.221Z,99.90
2019-04-23T20:39:12.237Z,99.90
2019-04-23T20:42:07.785Z,99.90
2019-04-23T20:44:21.687Z,99.90
2019-04-23T20:46:52.508Z,99.90
2019-04-23T20:49:21.304Z,99.90
2019-04-23T20:51:57.494Z,99.90
2019-04-23T20:54:22.663Z,99.90
2019-04-23T20:57:00.524Z,99.90
2019-04-23T20:59:33.638Z,99.90
2019-04-23T21:02:27.270Z,99.90
2019-04-23T21:04:51.024Z,99.90
2019-04-23T21:07:15.949Z,99.90
2019-04-23T21:09:52.642Z,99.90
2019-04-23T21:12:14.254Z,99.90
2019-04-23T21:15:03.218Z,99.90
2019-04-23T21:17:04.132Z,99.90
2019-04-23T21:19:39.426Z,99.90
2019-04-23T21:22:09.919Z,99.90
2019-04-23T21:24:37.442Z,99.90
2019-04-23T21:27:15.402Z,99.90
2019-04-23T21:29:52.090Z,99.90
2019-04-23T21:32:13.235Z,99.90
2019-04-23T21:34:44.474Z,99.90
2019-04-23T21:37:23.846Z,99.90
2019-04-23T21:40:24.073Z,99.90
2019-04-23T21:45:02.666Z,99.90
2019-04-23T21:47:42.393Z,99.90
2019-04-23T21:52:54.918Z,99.90
2019-04-23T21:55:30.637Z,99.90
2019-04-23T21:57:59.814Z,99.90
2019-04-23T22:00:28.997Z,99.90
2019-04-23T22:02:54.671Z,99.90
2019-04-23T22:05:26.920Z,99.90
2019-04-23T22:10:22.027Z,99.90
2019-04-23T22:13:02.179Z,99.90
2019-04-23T22:15:16.423Z,99.90
2019-04-23T22:17:44.627Z,99.90
2019-04-23T22:20:21.388Z,99.90
2019-04-23T22:22:51.284Z,99.90
2019-04-23T22:25:11.490Z,99.90
2019-04-23T22:27:40.868Z,99.90
2019-04-23T22:30:04.532Z,99.90
2019-04-23T22:32:47.732Z,99.90
2019-04-23T22:37:32.372Z,99.90
2019-04-23T22:39:59.351Z,99.90
2019-04-23T22:42:57.136Z,99.90
2019-04-23T22:45:05.660Z,99.90
2019-04-23T22:47:34.557Z,99.90
2019-04-23T22:50:02.698Z,99.90
2019-04-23T22:57:20.986Z,99.90
2019-04-23T23:00:02.369Z,99.90
2019-04-23T23:05:07.213Z,99.90
2019-04-23T23:07:39.463Z,99.90
2019-04-23T23:10:15.484Z,99.90
2019-04-23T23:12:33.445Z,99.90
2019-04-23T23:15:01.024Z,99.90
2019-04-23T23:17:27.051Z,99.90
2019-04-23T23:20:01.726Z,99.90
2019-04-23T23:22:19.350Z,99.90
2019-04-23T23:25:03.360Z,99.90
2019-04-23T23:27:15.451Z,99.90
2019-04-23T23:29:56.088Z,99.90
2019-04-23T23:32:24.415Z,99.90
2019-04-23T23:35:04.316Z,99.90
2019-04-23T23:37:13.334Z,99.90
2019-04-23T23:40:04.736Z,99.90
2019-04-23T23:42:11.144Z,99.90
2019-04-23T23:52:22.017Z,99.90
2019-04-23T23:54:57.814Z,99.90
2019-04-23T23:57:12.529Z,99.90
